sensor_id;sensor_type;location;lat;lon;timestamp;P1;durP1;ratioP1;P2;durP2;ratioP2
35699;SDS011;21818;51.078;12.108;2023-07-16T00:00:51;6.10;;;3.42;;
35699;SDS011;21818;51.078;12.108;2023-07-16T00:03:17;6.30;;;3.67;;
35699;SDS011;21818;51.078;12.108;2023-07-16T00:05:43;8.38;;;3.22;;
35699;SDS011;21818;51.078;12.108;2023-07-16T00:08:08;6.22;;;3.70;;
35699;SDS011;21818;51.078;12.108;2023-07-16T00:10:37;5.68;;;3.10;;
35699;SDS011;21818;51.078;12.108;2023-07-16T00:13:03;4.72;;;3.05;;
35699;SDS011;21818;51.078;12.108;2023-07-16T00:15:29;7.38;;;3.13;;
35699;SDS011;21818;51.078;12.108;2023-07-16T00:17:55;7.32;;;2.80;;
35699;SDS011;21818;51.078;12.108;2023-07-16T00:20:20;6.13;;;2.75;;
35699;SDS011;21818;51.078;12.108;2023-07-16T00:22:48;3.00;;;2.65;;
35699;SDS011;21818;51.078;12.108;2023-07-16T00:25:14;3.65;;;2.40;;
35699;SDS011;21818;51.078;12.108;2023-07-16T00:27:40;5.65;;;2.80;;
35699;SDS011;21818;51.078;12.108;2023-07-16T00:30:05;5.53;;;3.08;;
35699;SDS011;21818;51.078;12.108;2023-07-16T00:32:32;5.03;;;2.88;;
35699;SDS011;21818;51.078;12.108;2023-07-16T00:34:58;5.82;;;2.58;;
35699;SDS011;21818;51.078;12.108;2023-07-16T00:37:23;5.15;;;2.92;;
35699;SDS011;21818;51.078;12.108;2023-07-16T00:39:49;4.40;;;2.45;;
35699;SDS011;21818;51.078;12.108;2023-07-16T00:42:15;5.70;;;2.83;;
35699;SDS011;21818;51.078;12.108;2023-07-16T00:44:41;6.10;;;2.90;;
35699;SDS011;21818;51.078;12.108;2023-07-16T00:47:06;8.57;;;2.80;;
35699;SDS011;21818;51.078;12.108;2023-07-16T00:49:34;6.05;;;2.65;;
35699;SDS011;21818;51.078;12.108;2023-07-16T00:51:59;6.75;;;3.00;;
35699;SDS011;21818;51.078;12.108;2023-07-16T00:54:26;5.88;;;2.83;;
35699;SDS011;21818;51.078;12.108;2023-07-16T00:56:52;6.63;;;2.92;;
35699;SDS011;21818;51.078;12.108;2023-07-16T00:59:18;5.43;;;2.85;;
35699;SDS011;21818;51.078;12.108;2023-07-16T01:01:44;4.32;;;3.03;;
35699;SDS011;21818;51.078;12.108;2023-07-16T01:04:09;6.88;;;3.10;;
35699;SDS011;21818;51.078;12.108;2023-07-16T01:06:40;7.57;;;3.30;;
35699;SDS011;21818;51.078;12.108;2023-07-16T01:09:10;5.72;;;2.97;;
35699;SDS011;21818;51.078;12.108;2023-07-16T01:11:43;8.43;;;2.50;;
35699;SDS011;21818;51.078;12.108;2023-07-16T01:14:09;4.47;;;2.92;;
35699;SDS011;21818;51.078;12.108;2023-07-16T01:16:35;7.13;;;2.60;;
35699;SDS011;21818;51.078;12.108;2023-07-16T01:19:01;5.85;;;2.67;;
35699;SDS011;21818;51.078;12.108;2023-07-16T01:21:29;6.90;;;3.05;;
35699;SDS011;21818;51.078;12.108;2023-07-16T01:30:15;6.75;;;2.97;;
35699;SDS011;21818;51.078;12.108;2023-07-16T01:32:41;4.20;;;2.38;;
35699;SDS011;21818;51.078;12.108;2023-07-16T01:35:07;4.15;;;2.47;;
35699;SDS011;21818;51.078;12.108;2023-07-16T01:37:33;5.43;;;2.15;;
35699;SDS011;21818;51.078;12.108;2023-07-16T01:39:59;5.22;;;2.63;;
35699;SDS011;21818;51.078;12.108;2023-07-16T01:42:26;5.75;;;2.25;;
35699;SDS011;21818;51.078;12.108;2023-07-16T01:44:51;2.97;;;2.15;;
35699;SDS011;21818;51.078;12.108;2023-07-16T01:47:24;3.25;;;2.58;;
35699;SDS011;21818;51.078;12.108;2023-07-16T01:49:54;3.53;;;2.55;;
35699;SDS011;21818;51.078;12.108;2023-07-16T01:52:20;4.80;;;2.65;;
35699;SDS011;21818;51.078;12.108;2023-07-16T01:54:46;3.15;;;2.10;;
35699;SDS011;21818;51.078;12.108;2023-07-16T01:57:12;3.65;;;2.10;;
35699;SDS011;21818;51.078;12.108;2023-07-16T01:59:38;4.28;;;2.35;;
35699;SDS011;21818;51.078;12.108;2023-07-16T02:02:04;2.70;;;1.95;;
35699;SDS011;21818;51.078;12.108;2023-07-16T02:04:29;4.18;;;2.05;;
35699;SDS011;21818;51.078;12.108;2023-07-16T02:06:55;4.97;;;2.42;;
35699;SDS011;21818;51.078;12.108;2023-07-16T02:09:22;3.95;;;1.92;;
35699;SDS011;21818;51.078;12.108;2023-07-16T02:11:47;5.45;;;2.10;;
35699;SDS011;21818;51.078;12.108;2023-07-16T02:14:13;4.20;;;1.98;;
35699;SDS011;21818;51.078;12.108;2023-07-16T02:16:40;3.38;;;2.08;;
35699;SDS011;21818;51.078;12.108;2023-07-16T02:19:06;4.88;;;2.38;;
35699;SDS011;21818;51.078;12.108;2023-07-16T02:21:32;4.20;;;2.30;;
35699;SDS011;21818;51.078;12.108;2023-07-16T02:23:57;5.13;;;2.47;;
35699;SDS011;21818;51.078;12.108;2023-07-16T02:26:23;2.92;;;2.10;;
35699;SDS011;21818;51.078;12.108;2023-07-16T02:28:48;5.13;;;2.08;;
35699;SDS011;21818;51.078;12.108;2023-07-16T02:31:14;3.15;;;2.00;;
35699;SDS011;21818;51.078;12.108;2023-07-16T02:33:40;3.25;;;2.08;;
35699;SDS011;21818;51.078;12.108;2023-07-16T02:36:05;3.38;;;2.03;;
35699;SDS011;21818;51.078;12.108;2023-07-16T02:38:31;3.33;;;2.08;;
35699;SDS011;21818;51.078;12.108;2023-07-16T02:40:57;3.15;;;1.52;;
35699;SDS011;21818;51.078;12.108;2023-07-16T02:43:22;2.70;;;1.92;;
35699;SDS011;21818;51.078;12.108;2023-07-16T02:45:48;4.10;;;2.33;;
35699;SDS011;21818;51.078;12.108;2023-07-16T02:48:14;5.93;;;2.03;;
35699;SDS011;21818;51.078;12.108;2023-07-16T02:50:39;4.88;;;1.95;;
35699;SDS011;21818;51.078;12.108;2023-07-16T02:53:05;4.35;;;2.20;;
35699;SDS011;21818;51.078;12.108;2023-07-16T02:55:32;3.67;;;2.05;;
35699;SDS011;21818;51.078;12.108;2023-07-16T02:57:59;5.95;;;1.95;;
35699;SDS011;21818;51.078;12.108;2023-07-16T03:00:29;3.93;;;1.90;;
35699;SDS011;21818;51.078;12.108;2023-07-16T03:02:58;2.95;;;1.73;;
35699;SDS011;21818;51.078;12.108;2023-07-16T03:05:24;4.55;;;2.00;;
35699;SDS011;21818;51.078;12.108;2023-07-16T03:07:51;4.97;;;2.30;;
35699;SDS011;21818;51.078;12.108;2023-07-16T03:10:16;4.22;;;1.92;;
35699;SDS011;21818;51.078;12.108;2023-07-16T03:12:42;2.20;;;1.35;;
35699;SDS011;21818;51.078;12.108;2023-07-16T03:15:07;3.65;;;1.75;;
35699;SDS011;21818;51.078;12.108;2023-07-16T03:17:34;4.90;;;1.83;;
35699;SDS011;21818;51.078;12.108;2023-07-16T03:19:59;2.95;;;1.52;;
35699;SDS011;21818;51.078;12.108;2023-07-16T03:22:25;4.13;;;1.92;;
35699;SDS011;21818;51.078;12.108;2023-07-16T03:24:50;5.40;;;1.98;;
35699;SDS011;21818;51.078;12.108;2023-07-16T03:27:16;2.75;;;1.60;;
35699;SDS011;21818;51.078;12.108;2023-07-16T03:29:42;5.75;;;1.70;;
35699;SDS011;21818;51.078;12.108;2023-07-16T03:32:07;2.72;;;1.50;;
35699;SDS011;21818;51.078;12.108;2023-07-16T03:34:33;3.60;;;1.67;;
35699;SDS011;21818;51.078;12.108;2023-07-16T03:36:58;5.45;;;1.83;;
35699;SDS011;21818;51.078;12.108;2023-07-16T03:39:24;3.58;;;1.60;;
35699;SDS011;21818;51.078;12.108;2023-07-16T03:41:50;2.30;;;1.55;;
35699;SDS011;21818;51.078;12.108;2023-07-16T03:44:15;4.35;;;1.73;;
35699;SDS011;21818;51.078;12.108;2023-07-16T03:46:41;2.83;;;1.88;;
35699;SDS011;21818;51.078;12.108;2023-07-16T03:49:07;4.70;;;1.63;;
35699;SDS011;21818;51.078;12.108;2023-07-16T03:51:52;3.08;;;1.42;;
35699;SDS011;21818;51.078;12.108;2023-07-16T03:54:18;3.47;;;1.42;;
35699;SDS011;21818;51.078;12.108;2023-07-16T03:56:44;5.40;;;1.55;;
35699;SDS011;21818;51.078;12.108;2023-07-16T03:59:09;4.05;;;1.48;;
35699;SDS011;21818;51.078;12.108;2023-07-16T04:01:35;3.70;;;1.73;;
35699;SDS011;21818;51.078;12.108;2023-07-16T04:04:00;5.13;;;1.60;;
35699;SDS011;21818;51.078;12.108;2023-07-16T04:06:26;6.00;;;1.77;;
35699;SDS011;21818;51.078;12.108;2023-07-16T04:08:52;2.70;;;1.50;;
35699;SDS011;21818;51.078;12.108;2023-07-16T04:11:17;4.50;;;1.60;;
35699;SDS011;21818;51.078;12.108;2023-07-16T04:13:43;4.35;;;1.75;;
35699;SDS011;21818;51.078;12.108;2023-07-16T04:16:08;4.28;;;1.67;;
35699;SDS011;21818;51.078;12.108;2023-07-16T04:18:34;3.22;;;1.50;;
35699;SDS011;21818;51.078;12.108;2023-07-16T04:20:59;4.70;;;1.67;;
35699;SDS011;21818;51.078;12.108;2023-07-16T04:23:25;2.47;;;1.55;;
35699;SDS011;21818;51.078;12.108;2023-07-16T04:25:51;3.80;;;1.40;;
35699;SDS011;21818;51.078;12.108;2023-07-16T04:28:18;1.88;;;1.08;;
35699;SDS011;21818;51.078;12.108;2023-07-16T04:30:43;2.78;;;1.33;;
35699;SDS011;21818;51.078;12.108;2023-07-16T04:33:09;5.90;;;1.70;;
35699;SDS011;21818;51.078;12.108;2023-07-16T04:35:35;3.90;;;1.50;;
35699;SDS011;21818;51.078;12.108;2023-07-16T04:38:00;2.42;;;1.40;;
35699;SDS011;21818;51.078;12.108;2023-07-16T04:40:27;3.55;;;1.50;;
35699;SDS011;21818;51.078;12.108;2023-07-16T04:42:54;4.75;;;1.63;;
35699;SDS011;21818;51.078;12.108;2023-07-16T04:45:19;2.60;;;1.10;;
35699;SDS011;21818;51.078;12.108;2023-07-16T04:47:45;2.72;;;1.17;;
35699;SDS011;21818;51.078;12.108;2023-07-16T04:50:11;1.45;;;1.25;;
35699;SDS011;21818;51.078;12.108;2023-07-16T04:52:37;2.17;;;1.00;;
35699;SDS011;21818;51.078;12.108;2023-07-16T04:55:03;3.08;;;1.20;;
35699;SDS011;21818;51.078;12.108;2023-07-16T04:57:28;4.20;;;1.10;;
35699;SDS011;21818;51.078;12.108;2023-07-16T04:59:54;3.92;;;1.48;;
35699;SDS011;21818;51.078;12.108;2023-07-16T05:02:20;3.08;;;1.50;;
35699;SDS011;21818;51.078;12.108;2023-07-16T05:04:46;3.63;;;1.30;;
35699;SDS011;21818;51.078;12.108;2023-07-16T05:07:13;6.43;;;1.10;;
35699;SDS011;21818;51.078;12.108;2023-07-16T05:09:39;2.65;;;1.13;;
35699;SDS011;21818;51.078;12.108;2023-07-16T05:12:05;2.63;;;1.17;;
35699;SDS011;21818;51.078;12.108;2023-07-16T05:14:31;3.47;;;1.25;;
35699;SDS011;21818;51.078;12.108;2023-07-16T05:17:07;2.42;;;1.23;;
35699;SDS011;21818;51.078;12.108;2023-07-16T05:19:32;2.17;;;1.35;;
35699;SDS011;21818;51.078;12.108;2023-07-16T05:21:58;2.15;;;1.33;;
35699;SDS011;21818;51.078;12.108;2023-07-16T05:24:23;2.83;;;1.10;;
35699;SDS011;21818;51.078;12.108;2023-07-16T05:26:49;2.00;;;1.00;;
35699;SDS011;21818;51.078;12.108;2023-07-16T05:29:15;2.17;;;1.27;;
35699;SDS011;21818;51.078;12.108;2023-07-16T05:31:42;2.10;;;1.17;;
35699;SDS011;21818;51.078;12.108;2023-07-16T05:34:08;3.70;;;1.33;;
35699;SDS011;21818;51.078;12.108;2023-07-16T05:36:33;2.42;;;1.10;;
35699;SDS011;21818;51.078;12.108;2023-07-16T05:38:59;4.05;;;1.63;;
35699;SDS011;21818;51.078;12.108;2023-07-16T05:41:25;2.67;;;1.15;;
35699;SDS011;21818;51.078;12.108;2023-07-16T05:43:50;2.33;;;0.95;;
35699;SDS011;21818;51.078;12.108;2023-07-16T05:46:16;2.03;;;0.98;;
35699;SDS011;21818;51.078;12.108;2023-07-16T05:48:41;3.90;;;1.30;;
35699;SDS011;21818;51.078;12.108;2023-07-16T05:51:07;1.92;;;1.20;;
35699;SDS011;21818;51.078;12.108;2023-07-16T05:53:32;4.03;;;1.10;;
35699;SDS011;21818;51.078;12.108;2023-07-16T05:55:58;1.92;;;1.10;;
35699;SDS011;21818;51.078;12.108;2023-07-16T05:58:24;3.60;;;1.33;;
35699;SDS011;21818;51.078;12.108;2023-07-16T06:00:50;1.60;;;1.13;;
35699;SDS011;21818;51.078;12.108;2023-07-16T06:03:15;2.60;;;1.30;;
35699;SDS011;21818;51.078;12.108;2023-07-16T06:05:42;2.28;;;0.95;;
35699;SDS011;21818;51.078;12.108;2023-07-16T06:08:07;1.90;;;1.05;;
35699;SDS011;21818;51.078;12.108;2023-07-16T06:10:33;5.30;;;1.30;;
35699;SDS011;21818;51.078;12.108;2023-07-16T06:13:00;3.25;;;1.23;;
35699;SDS011;21818;51.078;12.108;2023-07-16T06:15:25;2.50;;;1.30;;
35699;SDS011;21818;51.078;12.108;2023-07-16T06:17:51;3.33;;;1.58;;
35699;SDS011;21818;51.078;12.108;2023-07-16T06:20:17;2.28;;;1.10;;
35699;SDS011;21818;51.078;12.108;2023-07-16T06:22:42;2.50;;;1.15;;
35699;SDS011;21818;51.078;12.108;2023-07-16T06:25:08;4.18;;;1.60;;
35699;SDS011;21818;51.078;12.108;2023-07-16T06:27:35;4.60;;;1.20;;
35699;SDS011;21818;51.078;12.108;2023-07-16T06:30:01;4.10;;;1.23;;
35699;SDS011;21818;51.078;12.108;2023-07-16T06:32:27;4.53;;;1.25;;
35699;SDS011;21818;51.078;12.108;2023-07-16T06:34:52;4.35;;;1.02;;
35699;SDS011;21818;51.078;12.108;2023-07-16T06:37:18;5.72;;;1.48;;
35699;SDS011;21818;51.078;12.108;2023-07-16T06:39:44;2.17;;;1.33;;
35699;SDS011;21818;51.078;12.108;2023-07-16T06:42:09;3.75;;;1.33;;
35699;SDS011;21818;51.078;12.108;2023-07-16T06:44:35;4.05;;;1.33;;
35699;SDS011;21818;51.078;12.108;2023-07-16T06:47:00;2.30;;;1.30;;
35699;SDS011;21818;51.078;12.108;2023-07-16T06:49:26;2.65;;;1.25;;
35699;SDS011;21818;51.078;12.108;2023-07-16T06:51:52;5.53;;;1.27;;
35699;SDS011;21818;51.078;12.108;2023-07-16T06:54:17;4.72;;;1.58;;
35699;SDS011;21818;51.078;12.108;2023-07-16T06:56:43;4.70;;;1.67;;
35699;SDS011;21818;51.078;12.108;2023-07-16T06:59:09;3.75;;;1.30;;
35699;SDS011;21818;51.078;12.108;2023-07-16T07:01:34;4.55;;;1.25;;
35699;SDS011;21818;51.078;12.108;2023-07-16T07:04:00;2.95;;;1.23;;
35699;SDS011;21818;51.078;12.108;2023-07-16T07:06:25;3.30;;;1.42;;
35699;SDS011;21818;51.078;12.108;2023-07-16T07:08:51;3.58;;;1.35;;
35699;SDS011;21818;51.078;12.108;2023-07-16T07:11:17;2.28;;;1.08;;
35699;SDS011;21818;51.078;12.108;2023-07-16T07:13:42;3.25;;;1.10;;
35699;SDS011;21818;51.078;12.108;2023-07-16T07:16:08;3.63;;;1.15;;
35699;SDS011;21818;51.078;12.108;2023-07-16T07:18:33;2.80;;;1.35;;
35699;SDS011;21818;51.078;12.108;2023-07-16T07:20:59;3.40;;;1.40;;
35699;SDS011;21818;51.078;12.108;2023-07-16T07:23:25;2.35;;;1.25;;
35699;SDS011;21818;51.078;12.108;2023-07-16T07:25:50;5.25;;;1.30;;
35699;SDS011;21818;51.078;12.108;2023-07-16T07:28:16;7.10;;;1.40;;
35699;SDS011;21818;51.078;12.108;2023-07-16T07:30:42;4.57;;;1.60;;
35699;SDS011;21818;51.078;12.108;2023-07-16T07:33:09;4.00;;;1.20;;
35699;SDS011;21818;51.078;12.108;2023-07-16T07:35:34;4.00;;;1.10;;
35699;SDS011;21818;51.078;12.108;2023-07-16T07:38:00;2.40;;;1.00;;
35699;SDS011;21818;51.078;12.108;2023-07-16T07:40:26;2.65;;;1.00;;
35699;SDS011;21818;51.078;12.108;2023-07-16T07:42:51;3.15;;;1.38;;
35699;SDS011;21818;51.078;12.108;2023-07-16T07:45:17;4.80;;;1.35;;
35699;SDS011;21818;51.078;12.108;2023-07-16T07:47:43;4.55;;;1.60;;
35699;SDS011;21818;51.078;12.108;2023-07-16T07:50:08;7.28;;;1.67;;
35699;SDS011;21818;51.078;12.108;2023-07-16T07:52:34;4.97;;;1.60;;
35699;SDS011;21818;51.078;12.108;2023-07-16T07:55:00;2.83;;;1.00;;
35699;SDS011;21818;51.078;12.108;2023-07-16T07:57:26;3.25;;;1.20;;
35699;SDS011;21818;51.078;12.108;2023-07-16T07:59:51;5.75;;;1.55;;
35699;SDS011;21818;51.078;12.108;2023-07-16T08:02:21;4.03;;;1.58;;
35699;SDS011;21818;51.078;12.108;2023-07-16T08:04:49;3.85;;;1.30;;
35699;SDS011;21818;51.078;12.108;2023-07-16T08:07:16;2.78;;;0.98;;
35699;SDS011;21818;51.078;12.108;2023-07-16T08:09:42;5.65;;;1.30;;
35699;SDS011;21818;51.078;12.108;2023-07-16T08:12:08;2.78;;;1.55;;
35699;SDS011;21818;51.078;12.108;2023-07-16T08:14:34;1.98;;;1.08;;
35699;SDS011;21818;51.078;12.108;2023-07-16T08:16:59;2.90;;;1.25;;
35699;SDS011;21818;51.078;12.108;2023-07-16T08:19:26;6.50;;;1.42;;
35699;SDS011;21818;51.078;12.108;2023-07-16T08:21:51;3.35;;;1.17;;
35699;SDS011;21818;51.078;12.108;2023-07-16T08:24:17;2.55;;;1.10;;
35699;SDS011;21818;51.078;12.108;2023-07-16T08:26:42;3.65;;;1.27;;
35699;SDS011;21818;51.078;12.108;2023-07-16T08:29:08;4.53;;;1.33;;
35699;SDS011;21818;51.078;12.108;2023-07-16T08:31:34;5.22;;;1.50;;
35699;SDS011;21818;51.078;12.108;2023-07-16T08:33:59;2.53;;;1.10;;
35699;SDS011;21818;51.078;12.108;2023-07-16T08:36:25;7.97;;;1.48;;
35699;SDS011;21818;51.078;12.108;2023-07-16T08:38:51;3.75;;;1.10;;
35699;SDS011;21818;51.078;12.108;2023-07-16T08:41:17;2.55;;;1.15;;
35699;SDS011;21818;51.078;12.108;2023-07-16T08:43:43;2.80;;;1.25;;
35699;SDS011;21818;51.078;12.108;2023-07-16T08:46:12;2.95;;;1.17;;
35699;SDS011;21818;51.078;12.108;2023-07-16T08:48:37;2.45;;;1.10;;
35699;SDS011;21818;51.078;12.108;2023-07-16T08:51:03;3.47;;;1.55;;
35699;SDS011;21818;51.078;12.108;2023-07-16T08:53:31;2.95;;;1.35;;
35699;SDS011;21818;51.078;12.108;2023-07-16T08:55:56;3.72;;;1.25;;
35699;SDS011;21818;51.078;12.108;2023-07-16T08:58:23;6.78;;;1.48;;
35699;SDS011;21818;51.078;12.108;2023-07-16T09:00:49;4.00;;;1.40;;
35699;SDS011;21818;51.078;12.108;2023-07-16T09:03:16;6.82;;;1.38;;
35699;SDS011;21818;51.078;12.108;2023-07-16T09:05:42;2.78;;;0.93;;
35699;SDS011;21818;51.078;12.108;2023-07-16T09:08:12;3.72;;;1.10;;
35699;SDS011;21818;51.078;12.108;2023-07-16T09:10:39;7.30;;;1.40;;
35699;SDS011;21818;51.078;12.108;2023-07-16T09:13:08;3.35;;;1.13;;
35699;SDS011;21818;51.078;12.108;2023-07-16T09:15:34;4.18;;;1.30;;
35699;SDS011;21818;51.078;12.108;2023-07-16T09:18:00;3.17;;;1.00;;
35699;SDS011;21818;51.078;12.108;2023-07-16T09:20:26;3.15;;;1.15;;
35699;SDS011;21818;51.078;12.108;2023-07-16T09:22:58;5.88;;;1.38;;
35699;SDS011;21818;51.078;12.108;2023-07-16T09:25:27;3.92;;;1.38;;
35699;SDS011;21818;51.078;12.108;2023-07-16T09:27:53;3.80;;;1.08;;
35699;SDS011;21818;51.078;12.108;2023-07-16T09:30:19;1.80;;;1.10;;
35699;SDS011;21818;51.078;12.108;2023-07-16T09:32:45;3.55;;;1.15;;
35699;SDS011;21818;51.078;12.108;2023-07-16T09:35:13;2.40;;;1.02;;
35699;SDS011;21818;51.078;12.108;2023-07-16T09:37:43;3.33;;;1.38;;
35699;SDS011;21818;51.078;12.108;2023-07-16T09:40:09;3.25;;;1.40;;
35699;SDS011;21818;51.078;12.108;2023-07-16T09:42:40;1.75;;;0.95;;
35699;SDS011;21818;51.078;12.108;2023-07-16T09:45:07;2.00;;;0.88;;
35699;SDS011;21818;51.078;12.108;2023-07-16T09:47:37;2.13;;;0.80;;
35699;SDS011;21818;51.078;12.108;2023-07-16T09:50:03;3.55;;;1.05;;
35699;SDS011;21818;51.078;12.108;2023-07-16T09:52:29;2.67;;;1.17;;
35699;SDS011;21818;51.078;12.108;2023-07-16T09:54:57;4.15;;;1.45;;
35699;SDS011;21818;51.078;12.108;2023-07-16T09:57:26;2.40;;;1.10;;
35699;SDS011;21818;51.078;12.108;2023-07-16T09:59:55;2.40;;;1.10;;
35699;SDS011;21818;51.078;12.108;2023-07-16T10:02:23;3.17;;;1.05;;
35699;SDS011;21818;51.078;12.108;2023-07-16T10:04:49;3.30;;;1.00;;
35699;SDS011;21818;51.078;12.108;2023-07-16T10:07:21;5.75;;;1.40;;
35699;SDS011;21818;51.078;12.108;2023-07-16T10:12:22;1.60;;;0.98;;
35699;SDS011;21818;51.078;12.108;2023-07-16T10:14:52;2.83;;;1.10;;
35699;SDS011;21818;51.078;12.108;2023-07-16T10:17:22;2.95;;;1.02;;
35699;SDS011;21818;51.078;12.108;2023-07-16T10:22:30;2.92;;;0.88;;
35699;SDS011;21818;51.078;12.108;2023-07-16T10:25:00;2.25;;;1.05;;
35699;SDS011;21818;51.078;12.108;2023-07-16T10:27:27;2.70;;;1.08;;
35699;SDS011;21818;51.078;12.108;2023-07-16T10:29:54;1.25;;;0.95;;
35699;SDS011;21818;51.078;12.108;2023-07-16T10:32:20;4.05;;;1.40;;
35699;SDS011;21818;51.078;12.108;2023-07-16T10:34:46;2.03;;;1.15;;
35699;SDS011;21818;51.078;12.108;2023-07-16T10:37:11;3.80;;;1.00;;
35699;SDS011;21818;51.078;12.108;2023-07-16T10:39:45;3.35;;;1.35;;
35699;SDS011;21818;51.078;12.108;2023-07-16T10:42:12;4.00;;;1.58;;
35699;SDS011;21818;51.078;12.108;2023-07-16T10:44:37;3.95;;;1.20;;
35699;SDS011;21818;51.078;12.108;2023-07-16T10:47:05;3.00;;;1.00;;
35699;SDS011;21818;51.078;12.108;2023-07-16T10:49:30;5.80;;;0.88;;
35699;SDS011;21818;51.078;12.108;2023-07-16T10:51:58;1.85;;;1.10;;
35699;SDS011;21818;51.078;12.108;2023-07-16T10:54:25;3.03;;;1.20;;
35699;SDS011;21818;51.078;12.108;2023-07-16T10:56:50;3.63;;;1.48;;
35699;SDS011;21818;51.078;12.108;2023-07-16T10:59:16;1.90;;;1.00;;
35699;SDS011;21818;51.078;12.108;2023-07-16T11:01:42;4.20;;;1.08;;
35699;SDS011;21818;51.078;12.108;2023-07-16T11:04:09;2.10;;;0.70;;
35699;SDS011;21818;51.078;12.108;2023-07-16T11:06:35;2.70;;;1.20;;
35699;SDS011;21818;51.078;12.108;2023-07-16T11:09:10;2.38;;;1.05;;
35699;SDS011;21818;51.078;12.108;2023-07-16T11:11:36;2.13;;;1.00;;
35699;SDS011;21818;51.078;12.108;2023-07-16T11:14:06;2.13;;;1.00;;
35699;SDS011;21818;51.078;12.108;2023-07-16T11:16:33;4.30;;;1.30;;
35699;SDS011;21818;51.078;12.108;2023-07-16T11:19:01;2.90;;;1.35;;
35699;SDS011;21818;51.078;12.108;2023-07-16T11:21:30;1.40;;;1.00;;
35699;SDS011;21818;51.078;12.108;2023-07-16T11:23:55;1.45;;;0.75;;
35699;SDS011;21818;51.078;12.108;2023-07-16T11:26:21;2.85;;;1.30;;
35699;SDS011;21818;51.078;12.108;2023-07-16T11:28:49;2.15;;;1.00;;
35699;SDS011;21818;51.078;12.108;2023-07-16T11:31:16;2.08;;;0.85;;
35699;SDS011;21818;51.078;12.108;2023-07-16T11:33:43;2.47;;;1.20;;
35699;SDS011;21818;51.078;12.108;2023-07-16T11:36:09;1.88;;;1.00;;
35699;SDS011;21818;51.078;12.108;2023-07-16T11:38:36;2.10;;;0.88;;
35699;SDS011;21818;51.078;12.108;2023-07-16T11:41:02;2.45;;;1.05;;
35699;SDS011;21818;51.078;12.108;2023-07-16T11:43:28;2.05;;;0.82;;
35699;SDS011;21818;51.078;12.108;2023-07-16T11:45:54;1.65;;;0.80;;
35699;SDS011;21818;51.078;12.108;2023-07-16T11:48:19;3.05;;;0.98;;
35699;SDS011;21818;51.078;12.108;2023-07-16T11:50:45;2.92;;;0.93;;
35699;SDS011;21818;51.078;12.108;2023-07-16T11:53:11;2.55;;;1.38;;
35699;SDS011;21818;51.078;12.108;2023-07-16T11:55:36;2.75;;;1.38;;
35699;SDS011;21818;51.078;12.108;2023-07-16T11:58:02;1.58;;;1.00;;
35699;SDS011;21818;51.078;12.108;2023-07-16T12:00:28;2.53;;;1.00;;
35699;SDS011;21818;51.078;12.108;2023-07-16T12:02:54;2.63;;;1.17;;
35699;SDS011;21818;51.078;12.108;2023-07-16T12:05:22;2.53;;;1.30;;
35699;SDS011;21818;51.078;12.108;2023-07-16T12:07:52;3.40;;;1.00;;
35699;SDS011;21818;51.078;12.108;2023-07-16T12:10:18;2.10;;;1.05;;
35699;SDS011;21818;51.078;12.108;2023-07-16T12:12:44;2.58;;;0.95;;
35699;SDS011;21818;51.078;12.108;2023-07-16T12:15:10;1.42;;;0.90;;
35699;SDS011;21818;51.078;12.108;2023-07-16T12:17:36;1.90;;;1.00;;
35699;SDS011;21818;51.078;12.108;2023-07-16T12:20:02;1.45;;;0.82;;
35699;SDS011;21818;51.078;12.108;2023-07-16T12:22:29;2.40;;;1.15;;
35699;SDS011;21818;51.078;12.108;2023-07-16T12:24:55;2.17;;;1.08;;
35699;SDS011;21818;51.078;12.108;2023-07-16T12:27:20;2.83;;;1.10;;
35699;SDS011;21818;51.078;12.108;2023-07-16T12:29:46;2.75;;;1.65;;
35699;SDS011;21818;51.078;12.108;2023-07-16T12:32:12;1.60;;;0.77;;
35699;SDS011;21818;51.078;12.108;2023-07-16T12:34:38;1.95;;;1.00;;
35699;SDS011;21818;51.078;12.108;2023-07-16T12:37:04;2.13;;;0.95;;
35699;SDS011;21818;51.078;12.108;2023-07-16T12:39:30;1.33;;;0.90;;
35699;SDS011;21818;51.078;12.108;2023-07-16T12:41:56;3.33;;;1.30;;
35699;SDS011;21818;51.078;12.108;2023-07-16T12:44:21;3.08;;;0.98;;
35699;SDS011;21818;51.078;12.108;2023-07-16T12:46:47;2.08;;;1.13;;
35699;SDS011;21818;51.078;12.108;2023-07-16T12:49:12;2.38;;;0.80;;
35699;SDS011;21818;51.078;12.108;2023-07-16T12:51:38;2.08;;;0.90;;
35699;SDS011;21818;51.078;12.108;2023-07-16T12:54:03;1.95;;;0.82;;
35699;SDS011;21818;51.078;12.108;2023-07-16T12:56:30;1.58;;;0.90;;
35699;SDS011;21818;51.078;12.108;2023-07-16T12:58:56;2.38;;;1.00;;
35699;SDS011;21818;51.078;12.108;2023-07-16T13:01:22;2.53;;;1.02;;
35699;SDS011;21818;51.078;12.108;2023-07-16T13:03:47;1.95;;;0.88;;
35699;SDS011;21818;51.078;12.108;2023-07-16T13:06:13;2.47;;;1.38;;
35699;SDS011;21818;51.078;12.108;2023-07-16T13:08:38;2.72;;;0.90;;
35699;SDS011;21818;51.078;12.108;2023-07-16T13:11:04;1.27;;;0.70;;
35699;SDS011;21818;51.078;12.108;2023-07-16T13:13:29;2.28;;;1.00;;
35699;SDS011;21818;51.078;12.108;2023-07-16T13:15:55;2.28;;;1.08;;
35699;SDS011;21818;51.078;12.108;2023-07-16T13:18:21;1.33;;;0.80;;
35699;SDS011;21818;51.078;12.108;2023-07-16T13:20:46;1.85;;;0.80;;
35699;SDS011;21818;51.078;12.108;2023-07-16T13:23:12;2.80;;;1.15;;
35699;SDS011;21818;51.078;12.108;2023-07-16T13:25:38;1.27;;;0.65;;
35699;SDS011;21818;51.078;12.108;2023-07-16T13:28:07;1.83;;;0.90;;
35699;SDS011;21818;51.078;12.108;2023-07-16T13:30:33;1.13;;;0.60;;
35699;SDS011;21818;51.078;12.108;2023-07-16T13:32:58;1.30;;;0.82;;
35699;SDS011;21818;51.078;12.108;2023-07-16T13:35:24;2.08;;;0.75;;
35699;SDS011;21818;51.078;12.108;2023-07-16T13:37:50;1.08;;;0.80;;
35699;SDS011;21818;51.078;12.108;2023-07-16T13:40:16;1.85;;;1.15;;
35699;SDS011;21818;51.078;12.108;2023-07-16T13:42:44;1.77;;;0.90;;
35699;SDS011;21818;51.078;12.108;2023-07-16T13:45:11;1.70;;;0.88;;
35699;SDS011;21818;51.078;12.108;2023-07-16T13:47:37;1.80;;;0.80;;
35699;SDS011;21818;51.078;12.108;2023-07-16T13:50:02;1.02;;;0.70;;
35699;SDS011;21818;51.078;12.108;2023-07-16T13:52:28;1.33;;;0.70;;
35699;SDS011;21818;51.078;12.108;2023-07-16T13:54:54;1.27;;;0.80;;
35699;SDS011;21818;51.078;12.108;2023-07-16T13:57:19;1.40;;;0.80;;
35699;SDS011;21818;51.078;12.108;2023-07-16T13:59:45;1.63;;;0.70;;
35699;SDS011;21818;51.078;12.108;2023-07-16T14:02:11;1.17;;;0.73;;
35699;SDS011;21818;51.078;12.108;2023-07-16T14:04:36;1.48;;;0.77;;
35699;SDS011;21818;51.078;12.108;2023-07-16T14:07:02;1.20;;;0.80;;
35699;SDS011;21818;51.078;12.108;2023-07-16T14:09:28;1.15;;;0.85;;
35699;SDS011;21818;51.078;12.108;2023-07-16T14:11:53;1.92;;;0.80;;
35699;SDS011;21818;51.078;12.108;2023-07-16T14:14:20;2.03;;;0.88;;
35699;SDS011;21818;51.078;12.108;2023-07-16T14:16:47;1.17;;;0.80;;
35699;SDS011;21818;51.078;12.108;2023-07-16T14:19:12;1.15;;;0.88;;
35699;SDS011;21818;51.078;12.108;2023-07-16T14:21:38;1.05;;;0.70;;
35699;SDS011;21818;51.078;12.108;2023-07-16T14:24:04;1.95;;;0.95;;
35699;SDS011;21818;51.078;12.108;2023-07-16T14:26:30;2.45;;;1.17;;
35699;SDS011;21818;51.078;12.108;2023-07-16T14:28:56;1.33;;;0.95;;
35699;SDS011;21818;51.078;12.108;2023-07-16T14:31:21;1.17;;;0.80;;
35699;SDS011;21818;51.078;12.108;2023-07-16T14:33:47;2.03;;;0.90;;
35699;SDS011;21818;51.078;12.108;2023-07-16T14:36:13;2.22;;;1.20;;
35699;SDS011;21818;51.078;12.108;2023-07-16T14:38:38;2.10;;;0.90;;